Hauptseite
METAR-TAF:

METAR-TAF

Flughäfen :

Heeresflugplatz Bückeburg

Bückeburg, Deutschland

Breite: 52-17N, Länge: 009-05E, Höhe: 70 m

Beobachtung

Neuester Wetterbericht von vor 1 Stunde und 5 Minuten, um 18:20 UTC
Wind 1 kt aus Süd
Temperatur 1°C
Luftfeuchtigkeit 86%
Luftdruck 1028 hPa
Sichtweite: 8000 m
Geschlossene Wolkendecke in der Höhe von 600 ft
Leichtregen, Sprühregen

METAR: ETHB 181820Z 18001KT 8000 -RADZ OVC006 01/M01 Q1028 YLO

Zeit: 20:25 (19:25 UTC)


TAF: fehlend

Wetterbeobachtungen und Prognosen von mehr als 4000 Flughäfen (METAR und TAF Bericht).

Die verfügbaren Stationen werden durch gelbe und rote Markierungen auf der Karte dargestellt.

Führen Sie die Maus auf sie, um den Namen der Station zu sehen.

Darauf klicken, um die Beobachtung von Wetterbeobachtungen und Prognosen zu sehen.

Um die Karte zu ändern : klicken Sie auf den grünen Tasten mit einem schwarzen Kreuz Zum Vergrößern, auf den grünen Button mit einem Gedankenstrich zu verkleinern, oder auf die grünen Pfeile für benachbarte Karten.


METAR-TAF: